09:51
Airports
Links
Donate
Help keep this website running!
PayPal
Bitcoin
METAR
VIDP 180930Z 31004KT 2500 HZ FEW040 BKN100 25/13 Q1015 NOSIG
Current Weather Conditions at VIDP
IFR 09:30:00 18-11-17
Altimeter:29.97 hg
Temp:25.0°c 77°f
Dew point:13.0°c 55°f
Wind:4 knots, 4.6 mph, 2 m/s, from 310°
Visibility:1.55 statute miles
10000(BKN) Broken
4000(FEW) A few
No significant weather changes expected within 2 hours.
Past METAR reports
IFR 09:00:00 18-11-17
Altimeter:29.97 hg
Temp:25.0°c 77°f
Dew point:13.0°c 55°f
Wind:4 knots, 4.6 mph, 2 m/s, from 330°
Visibility:1.55 statute miles
8000(OVC) Overcast
4000(FEW) A few
No significant weather changes expected within 2 hours.
VIDP 180900Z 33004KT 2500 HZ FEW040 OVC080 25/13 Q1015 NOSIG
IFR 08:30:00 18-11-17
Altimeter:29.97 hg
Temp:24.0°c 75°f
Dew point:13.0°c 55°f
Wind:5 knots, 5.8 mph, 3 m/s, from 320°
Visibility:1.55 statute miles
8000(OVC) Overcast
4000(SCT) Scattered
No significant weather changes expected within 2 hours.
VIDP 180830Z 32005KT 2500 HZ SCT040 OVC080 24/13 Q1015 NOSIG
IFR 08:00:00 18-11-17
Altimeter:30.00 hg
Temp:24.0°c 75°f
Dew point:13.0°c 55°f
Wind:5 knots, 5.8 mph, 3 m/s, from 290°
Visibility:1.37 statute miles
8000(OVC) Overcast
4000(SCT) Scattered
No significant weather changes expected within 2 hours.
VIDP 180800Z 29005KT 2200 HZ SCT040 OVC080 24/13 Q1016 NOSIG
IFR 07:30:00 18-11-17
Altimeter:30.00 hg
Temp:24.0°c 75°f
Dew point:13.0°c 55°f
Wind:5 knots, 5.8 mph, 3 m/s, from 280°
Visibility:1.24 statute miles
8000(OVC) Overcast
4000(SCT) Scattered
No significant weather changes expected within 2 hours.
VIDP 180730Z 28005KT 2000 HZ SCT040 OVC080 24/13 Q1016 NOSIG
IFR 07:00:00 18-11-17
Altimeter:30.03 hg
Temp:24.0°c 75°f
Dew point:13.0°c 55°f
Wind:6 knots, 6.9 mph, 3 m/s, from 240°
Visibility:1.24 statute miles
10000(BKN) Broken
4000(SCT) Scattered
No significant weather changes expected within 2 hours.
VIDP 180700Z 24006KT 2000 SCT040 BKN100 24/13 Q1017 NOSIG
IFR 06:30:00 18-11-17
Altimeter:30.03 hg
Temp:24.0°c 75°f
Dew point:12.0°c 54°f
Wind:5 knots, 5.8 mph, 3 m/s, from 310°
Visibility:1.55 statute miles
10000(FEW) A few
No significant weather changes expected within 2 hours.
VIDP 180630Z 31005KT 2500 HZ FEW100 24/12 Q1017 NOSIG
TAF
TAF VIDP 180500Z 1806/1912 30008KT 1500 HZ SCT040 SCT100 TEMPO 1809/1813 FEW030CB OVC080 BECMG 1810/1812 28008KT 3000 HZ BECMG 1820/1822 29005KT 1500 BR FEW040 SCT100 BECMG 1900/1902 0600 MIFG BECMG 1904/1906 30008KT 1500 HZ NSC BECMG 1908/1910 32006KT 4000 HZ
Forecast at VIDP
06:00 18-11-17 to 10:00 18-11-17
HZ
Wind:8 Knots from 300°
Visibility:0.93 statute miles
4000SCT Scattered
10000SCT Scattered
TEMPO 09:00 18-11-17 to 13:00 18-11-17
3000FEW A few
8000OVC Overcast
BECMG 10:00 18-11-17 to 20:00 18-11-17
HZ
Wind:8 Knots from 280°
Visibility:1.86 statute miles
4000SCT Scattered
10000SCT Scattered
BECMG 20:00 18-11-17 to 00:00 19-11-17
BR
Wind:5 Knots from 290°
Visibility:0.93 statute miles
4000FEW A few
10000SCT Scattered
BECMG 00:00 19-11-17 to 04:00 19-11-17
MIFG
Wind:5 Knots from 290°
Visibility:0.37 statute miles
4000FEW A few
10000SCT Scattered
BECMG 04:00 19-11-17 to 08:00 19-11-17
HZ
Wind:8 Knots from 300°
Visibility:0.93 statute miles
NSC
BECMG 08:00 19-11-17 to 12:00 19-11-17
HZ
Wind:6 Knots from 320°
Visibility:2.49 statute miles
NSC